Data for 01/15/2018

Time Sea-Level Adjusted Pressure Absolute Pressure Temperature Relative Humidity Dew Point   
(mb) (inHg) (mb) (inHg) (C) (F) (%) (C) (F)
00:05 1029 30.39 859 25.37 -2 28.4 81 -4.9 23.2
00:10 1029 30.39 859 25.37 -2 28.3 80 -5.1 22.9
00:15 1029 30.39 859 25.37 -2.1 28.2 80 -5.1 22.8
00:20 1029 30.39 859 25.37 -2.2 28.1 79 -5.3 22.5
00:25 1029 30.39 859 25.37 -2.2 28.1 79 -5.3 22.4
00:30 1029 30.39 859 25.37 -2.2 28.1 79 -5.3 22.4
00:35 1029 30.39 859 25.37 -2.2 28.1 79 -5.4 22.3
00:40 1029 30.39 859 25.37 -2.2 28.1 79 -5.3 22.5
00:45 1029 30.39 859 25.37 -2.3 27.9 79 -5.4 22.2
00:50 1030 30.42 859 25.37 -2.4 27.7 79 -5.6 21.9
00:55 1030 30.42 859 25.37 -2.4 27.6 79 -5.6 21.8
01:00 1030 30.42 859 25.37 -2.4 27.6 78 -5.8 21.6
01:05 1030 30.42 859 25.37 -2.4 27.6 78 -5.7 21.8
01:10 1030 30.42 859 25.37 -2.4 27.7 78 -5.7 21.7
01:15 1030 30.42 859 25.37 -2.4 27.7 78 -5.7 21.7
01:20 1030 30.42 859 25.37 -2.4 27.6 79 -5.7 21.8
01:25 1030 30.42 859 25.37 -2.4 27.6 79 -5.5 22
01:30 1030 30.42 859 25.37 -2.5 27.5 81 -5.4 22.3
01:35 1030 30.42 859 25.37 -2.6 27.4 82 -5.2 22.6
01:40 1030 30.42 859 25.37 -2.6 27.2 83 -5.1 22.8
01:45 1030 30.42 859 25.37 -2.7 27.2 84 -5 22.9
01:50 1030 30.42 859 25.37 -2.7 27.1 84 -5 23
01:55 1030 30.42 859 25.37 -2.7 27.1 85 -4.9 23.1
02:00 1030 30.42 859 25.37 -2.7 27.2 85 -4.8 23.3
02:05 1030 30.42 860 25.4 -2.7 27.1 85 -4.9 23.1
02:10 1030 30.42 860 25.4 -2.8 27 83 -5.2 22.6
02:15 1030 30.42 860 25.4 -2.8 26.9 84 -5.2 22.6
02:20 1030 30.42 860 25.4 -2.7 27.1 84 -5 22.9
02:25 1030 30.42 860 25.4 -2.8 27 85 -4.9 23.1
02:30 1030 30.42 860 25.4 -2.8 27 85 -4.9 23.2
02:35 1031 30.45 860 25.4 -2.7 27.1 86 -4.7 23.5
02:40 1031 30.45 860 25.4 -2.7 27.2 86 -4.7 23.6
02:45 1031 30.45 860 25.4 -2.6 27.3 87 -4.5 24
02:50 1031 30.45 860 25.4 -2.6 27.3 88 -4.3 24.2
02:55 1031 30.45 860 25.4 -2.6 27.2 89 -4.2 24.4
03:00 1030 30.42 860 25.4 -2.6 27.3 89 -4.2 24.5
03:05 1030 30.42 860 25.4 -2.6 27.4 89 -4.1 24.6
03:10 1031 30.45 860 25.4 -2.5 27.6 89 -4.1 24.7
03:15 1030 30.42 860 25.4 -2.5 27.5 89 -4.1 24.5
03:20 1031 30.45 860 25.4 -2.6 27.3 89 -4.1 24.6
03:25 1031 30.45 860 25.4 -2.4 27.7 89 -3.9 24.9
03:30 1030 30.42 860 25.4 -2.2 28.1 88 -3.9 25.1
03:35 1030 30.42 860 25.4 -2.1 28.2 87 -3.9 25
03:40 1030 30.42 860 25.4 -2.2 28 88 -4 24.9
03:45 1030 30.42 860 25.4 -2.3 27.9 89 -3.9 25
03:50 1030 30.42 860 25.4 -2.3 27.9 89 -3.9 25
03:55 1030 30.42 860 25.4 -2.3 27.9 89 -3.9 25.1
04:00 1030 30.42 860 25.4 -2.2 28 89 -3.8 25.2
04:05 1031 30.45 860 25.4 -2.3 27.9 88 -3.9 24.9
04:10 1031 30.45 860 25.4 -2.3 27.8 87 -4.2 24.4
04:15 1031 30.45 860 25.4 -2.4 27.7 86 -4.4 24
04:20 1031 30.45 860 25.4 -2.4 27.7 85 -4.6 23.7
04:25 1031 30.45 860 25.4 -2.4 27.6 81 -5.2 22.6
04:30 1031 30.45 860 25.4 -2.6 27.4 81 -5.4 22.3
04:35 1031 30.45 860 25.4 -2.6 27.2 80 -5.6 21.8
04:40 1031 30.45 860 25.4 -2.8 27 80 -5.8 21.5
04:45 1031 30.45 860 25.4 -3 26.6 79 -6.1 21
04:50 1031 30.45 860 25.4 -3.3 26 80 -6.3 20.6
04:55 1031 30.45 860 25.4 -3.5 25.7 80 -6.5 20.3
05:00 1031 30.45 860 25.4 -3.6 25.5 80 -6.5 20.3
05:05 1031 30.45 860 25.4 -3.6 25.5 81 -6.5 20.4
05:10 1031 30.45 860 25.4 -3.6 25.6 81 -6.4 20.5
05:15 1031 30.45 860 25.4 -3.6 25.6 81 -6.4 20.5
05:20 1031 30.45 860 25.4 -3.6 25.5 81 -6.4 20.5
05:25 1031 30.45 860 25.4 -3.6 25.4 81 -6.5 20.3
05:30 1031 30.45 860 25.4 -3.7 25.4 80 -6.6 20.1
05:35 1031 30.45 860 25.4 -3.8 25.1 80 -6.7 19.9
05:40 1031 30.45 860 25.4 -3.9 24.9 80 -6.9 19.6
05:45 1031 30.45 860 25.4 -3.9 25 80 -6.8 19.7
05:50 1031 30.45 860 25.4 -3.8 25.1 80 -6.8 19.7
05:55 1031 30.45 860 25.4 -3.9 25.1 80 -6.9 19.6
06:00 1031 30.45 860 25.4 -3.8 25.1 79 -6.9 19.5
06:05 1031 30.45 860 25.4 -3.8 25.1 78 -7.1 19.2
06:10 1031 30.45 860 25.4 -4 24.9 78 -7.2 19.1
06:15 1031 30.45 860 25.4 -4.1 24.7 79 -7.2 19
06:20 1031 30.45 860 25.4 -4.2 24.4 79 -7.3 18.8
06:25 1031 30.45 860 25.4 -4.3 24.3 79 -7.4 18.6
06:30 1031 30.45 860 25.4 -4.3 24.2 79 -7.5 18.5
06:35 1031 30.45 860 25.4 -4.3 24.2 78 -7.5 18.4
06:40 1031 30.45 860 25.4 -4.3 24.3 78 -7.5 18.5
06:45 1031 30.45 860 25.4 -4.3 24.2 78 -7.5 18.5
06:50 1031 30.45 860 25.4 -4.3 24.2 79 -7.5 18.5
06:55 1031 30.45 860 25.4 -4.3 24.2 78 -7.6 18.3
07:00 1031 30.45 860 25.4 -4.4 24.1 78 -7.6 18.2
07:05 1031 30.45 860 25.4 -4.4 24 78 -7.7 18.1
07:10 1031 30.45 860 25.4 -4.4 24.1 78 -7.7 18.2
07:15 1031 30.45 860 25.4 -4.5 24 78 -7.7 18.2
07:20 1031 30.45 860 25.4 -4.5 23.8 79 -7.7 18.2
07:25 1031 30.45 860 25.4 -4.6 23.7 79 -7.8 18
07:30 1031 30.45 860 25.4 -4.7 23.5 79 -7.8 18
07:35 1031 30.45 860 25.4 -4.7 23.5 79 -7.8 17.9
07:40 1031 30.45 860 25.4 -4.9 23.1 79 -8 17.6
07:45 1031 30.45 860 25.4 -5 23 79 -8.1 17.5
07:50 1031 30.45 860 25.4 -5 23 79 -8.2 17.3
07:55 1031 30.45 860 25.4 -5.1 22.9 79 -8.2 17.2
08:00 1031 30.45 860 25.4 -5.1 22.9 79 -8.2 17.2
08:05 1031 30.45 860 25.4 -5.1 22.8 78 -8.4 17
08:10 1031 30.45 860 25.4 -5.1 22.7 78 -8.3 17
08:15 1031 30.45 860 25.4 -5.2 22.6 79 -8.4 17
08:20 1031 30.45 860 25.4 -5.3 22.4 79 -8.4 16.8
08:25 1031 30.45 860 25.4 -5.3 22.5 79 -8.4 16.9
08:30 1031 30.45 860 25.4 -5.3 22.5 79 -8.4 16.8
08:35 1031 30.45 861 25.43 -5.2 22.6 79 -8.4 16.9
08:40 1031 30.45 861 25.43 -5.2 22.7 77 -8.5 16.7
08:45 1031 30.45 861 25.43 -5.1 22.8 78 -8.4 16.9
08:50 1031 30.45 861 25.43 -5 23.1 77 -8.4 16.9
08:55 1031 30.45 861 25.43 -4.8 23.4 75 -8.5 16.6
09:00 1031 30.45 861 25.43 -4.7 23.6 75 -8.5 16.7
09:05 1032 30.47 861 25.43 -4.6 23.8 74 -8.5 16.8
09:10 1032 30.47 861 25.43 -4.5 23.9 74 -8.5 16.6
09:15 1032 30.47 861 25.43 -4.4 24 72 -8.7 16.4
09:20 1032 30.47 861 25.43 -4.4 24.1 72 -8.6 16.4
09:25 1032 30.47 861 25.43 -4.5 24 73 -8.6 16.6
09:30 1032 30.47 861 25.43 -4.5 23.9 72 -8.9 16
09:35 1032 30.47 861 25.43 -4.5 24 72 -8.7 16.3
09:40 1032 30.47 861 25.43 -4.7 23.6 74 -8.7 16.3
09:45 1032 30.47 861 25.43 -4.8 23.3 73 -8.9 16
09:50 1032 30.47 861 25.43 -4.8 23.5 72 -9.1 15.7
09:55 1032 30.47 861 25.43 -4.5 23.9 71 -9.1 15.7
10:00 1032 30.47 861 25.43 -4.5 23.8 71 -9 15.8
10:05 1032 30.47 861 25.43 -4.7 23.5 72 -9 15.8
10:10 1032 30.47 861 25.43 -4.8 23.3 72 -9.1 15.5
10:15 1032 30.47 861 25.43 -4.9 23.1 73 -9.1 15.7
10:20 1032 30.47 861 25.43 -4.9 23.1 72 -9.2 15.4
10:25 1032 30.47 861 25.43 -4.9 23.2 72 -9.3 15.3
10:30 1032 30.47 861 25.43 -4.5 23.9 70 -9.2 15.5
10:35 1032 30.47 861 25.43 -4 24.8 67 -9.3 15.3
10:40 1032 30.47 861 25.43 -3.7 25.4 66 -9.1 15.6
10:45 1032 30.47 861 25.43 -3.4 25.8 66 -9 15.8
10:50 1031 30.45 861 25.43 -3.2 26.2 63 -9.2 15.4
10:55 1031 30.45 861 25.43 -3.1 26.4 63 -9.2 15.5
11:00 1031 30.45 861 25.43 -3.2 26.2 63 -9.2 15.4
11:05 1031 30.45 861 25.43 -3 26.5 62 -9.2 15.4
11:10 1031 30.45 861 25.43 -3.1 26.4 62 -9.3 15.2
11:15 1031 30.45 861 25.43 -3.3 26 63 -9.4 15.2
11:20 1031 30.45 860 25.4 -3.3 26.1 63 -9.4 15.2
11:25 1031 30.45 860 25.4 -3.2 26.3 64 -9.1 15.6
11:30 1031 30.45 860 25.4 -3 26.6 62 -9.3 15.2
11:35 1031 30.45 860 25.4 -2.7 27.1 63 -8.7 16.3
11:40 1031 30.45 860 25.4 -2.5 27.5 61 -9.1 15.7
11:45 1031 30.45 860 25.4 -2.6 27.3 63 -8.8 16.2
11:50 1031 30.45 860 25.4 -2.6 27.3 61 -9.1 15.7
11:55 1031 30.45 860 25.4 -2.5 27.6 62 -8.9 16
12:00 1031 30.45 860 25.4 -2.4 27.6 62 -8.7 16.3
12:05 1031 30.45 860 25.4 -2.1 28.2 61 -8.6 16.5
12:10 1031 30.45 860 25.4 -2.2 28 63 -8.3 17.1
12:15 1031 30.45 860 25.4 -2.2 28 63 -8.3 17.1
12:20 1031 30.45 860 25.4 -2.1 28.1 62 -8.4 16.9
12:25 1031 30.45 860 25.4 -1.8 28.7 60 -8.6 16.6
12:30 1031 30.45 860 25.4 -2 28.3 63 -8.1 17.4
12:35 1031 30.45 860 25.4 -2 28.3 62 -8.4 16.9
12:40 1031 30.45 860 25.4 -2.2 28.1 63 -8.3 17.1
12:45 1031 30.45 860 25.4 -1.9 28.7 62 -8.2 17.3
12:50 1030 30.42 860 25.4 -1.4 29.6 60 -8 17.5
12:55 1030 30.42 860 25.4 -1.3 29.7 59 -8.3 17
13:00 1030 30.42 860 25.4 -0.9 30.4 59 -7.9 17.7
13:05 1030 30.42 860 25.4 -1.5 29.2 60 -8.3 17
13:10 1030 30.42 860 25.4 -1.8 28.7 63 -8 17.6
13:15 1030 30.42 860 25.4 -1.9 28.6 61 -8.4 17
13:20 1030 30.42 859 25.37 -1.5 29.3 61 -8.1 17.3
13:25 1030 30.42 859 25.37 -1.6 29.1 61 -8.3 17.1
13:30 1030 30.42 859 25.37 -1.5 29.3 59 -8.4 16.8
13:35 1030 30.42 859 25.37 -1.1 30 59 -8.1 17.3
13:40 1030 30.42 859 25.37 -0.7 30.8 57 -8.1 17.4
13:45 1030 30.42 859 25.37 -0.8 30.6 58 -8 17.6
13:50 1030 30.42 859 25.37 -0.8 30.6 59 -7.9 17.8
13:55 1030 30.42 859 25.37 -0.9 30.3 59 -8 17.5
14:00 1030 30.42 859 25.37 -1.1 30.1 59 -8.1 17.4
14:05 1030 30.42 859 25.37 -1.1 30 59 -8.1 17.5
14:10 1030 30.42 859 25.37 -0.9 30.4 58 -8.1 17.5
14:15 1030 30.42 859 25.37 -1.5 29.3 60 -8.2 17.2
14:20 1030 30.42 859 25.37 -1.6 29.1 60 -8.4 16.9
14:25 1030 30.42 859 25.37 -1.6 29.2 61 -8.1 17.3
14:30 1030 30.42 859 25.37 -1.9 28.5 61 -8.5 16.7
14:35 1030 30.42 859 25.37 -1.8 28.8 61 -8.3 17.1
14:40 1030 30.42 859 25.37 -2 28.4 62 -8.3 17.1
14:45 1030 30.42 859 25.37 -2.2 28 64 -8.1 17.4
14:50 1030 30.42 859 25.37 -1.8 28.7 61 -8.4 16.8
14:55 1030 30.42 859 25.37 -1.7 29 61 -8.3 17
15:00 1030 30.42 859 25.37 -1.9 28.7 62 -8.3 17.1
15:05 1030 30.42 859 25.37 -2.1 28.3 63 -8.2 17.2
15:10 1030 30.42 859 25.37 -2 28.5 62 -8.4 16.9
15:15 1030 30.42 859 25.37 -1.5 29.2 60 -8.3 17.1
15:20 1030 30.42 859 25.37 -1.5 29.3 59 -8.5 16.6
15:25 1030 30.42 859 25.37 -1.6 29.2 61 -8.1 17.4
15:30 1030 30.42 859 25.37 -1.5 29.3 60 -8.4 16.9
15:35 1030 30.42 859 25.37 -1.8 28.8 62 -8.1 17.4
15:40 1030 30.42 859 25.37 -2 28.3 62 -8.3 17
15:45 1030 30.42 859 25.37 -2.3 27.8 64 -8.2 17.3
15:50 1030 30.42 859 25.37 -2.4 27.7 63 -8.4 16.8
15:55 1030 30.42 859 25.37 -2.5 27.4 64 -8.5 16.8
16:00 1030 30.42 859 25.37 -2.8 26.9 65 -8.6 16.6
16:05 1030 30.42 859 25.37 -2.7 27.1 65 -8.5 16.7
16:10 1030 30.42 859 25.37 -2.8 26.9 65 -8.6 16.5
16:15 1030 30.42 859 25.37 -2.8 26.9 65 -8.6 16.5
16:20 1030 30.42 859 25.37 -3.1 26.4 66 -8.6 16.5
16:25 1030 30.42 859 25.37 -3.2 26.2 67 -8.6 16.5
16:30 1030 30.42 859 25.37 -3.5 25.8 67 -8.7 16.4
16:35 1030 30.42 859 25.37 -3.5 25.6 68 -8.7 16.4
16:40 1030 30.42 859 25.37 -3.7 25.4 68 -8.8 16.2
16:45 1030 30.42 859 25.37 -3.9 25 69 -8.7 16.3
16:50 1030 30.42 859 25.37 -4.2 24.4 71 -8.8 16.2
16:55 1030 30.42 859 25.37 -4.4 24.1 71 -8.9 16.1
17:00 1030 30.42 859 25.37 -4.6 23.7 72 -8.9 16
17:05 1030 30.42 859 25.37 -4.9 23.2 73 -9 15.8
17:10 1030 30.42 859 25.37 -5.1 22.8 74 -9 15.8
17:15 1030 30.42 859 25.37 -5.2 22.6 74 -9.1 15.6
17:20 1030 30.42 859 25.37 -5.4 22.4 75 -9.2 15.5
17:25 1030 30.42 859 25.37 -5.6 22 76 -9.2 15.4
17:30 1029 30.39 859 25.37 -5.7 21.8 76 -9.3 15.3
17:35 1029 30.39 859 25.37 -5.9 21.5 76 -9.4 15.1
17:40 1029 30.39 859 25.37 -6.1 21.1 77 -9.5 15
17:45 1029 30.39 859 25.37 -6.2 20.8 78 -9.5 14.8
17:50 1030 30.42 859 25.37 -6.3 20.6 78 -9.6 14.8
17:55 1030 30.42 859 25.37 -6.5 20.4 79 -9.6 14.8
18:00 1030 30.42 859 25.37 -6.6 20.2 79 -9.6 14.7
18:05 1029 30.39 859 25.37 -6.7 20 80 -9.6 14.7
18:10 1029 30.39 859 25.37 -6.7 19.9 80 -9.7 14.5
18:15 1029 30.39 859 25.37 -6.8 19.8 80 -9.7 14.5
18:20 1030 30.42 859 25.37 -6.8 19.7 80 -9.8 14.4
18:25 1030 30.42 859 25.37 -6.8 19.7 80 -9.7 14.5
18:30 1030 30.42 859 25.37 -6.8 19.7 80 -9.8 14.3
18:35 1029 30.39 859 25.37 -6.9 19.7 80 -9.8 14.4
18:40 1029 30.39 859 25.37 -6.9 19.7 79 -9.8 14.3
18:45 1029 30.39 859 25.37 -6.9 19.6 80 -9.8 14.4
18:50 1029 30.39 859 25.37 -7 19.5 80 -9.8 14.3
18:55 1029 30.39 859 25.37 -7.1 19.3 81 -9.8 14.3
19:00 1029 30.39 859 25.37 -7.1 19.2 81 -9.9 14.3
19:05 1029 30.39 858 25.34 -7.2 19.1 81 -9.9 14.1
19:10 1029 30.39 858 25.34 -7.1 19.2 81 -9.9 14.2
19:15 1029 30.39 859 25.37 -7.2 19.1 81 -10 14.1
19:20 1029 30.39 859 25.37 -7.3 18.8 81 -10 14
19:25 1029 30.39 859 25.37 -7.4 18.8 81 -10.1 13.9
19:30 1029 30.39 859 25.37 -7.5 18.6 81 -10.1 13.8
19:35 1029 30.39 859 25.37 -7.6 18.4 82 -10.2 13.6
19:40 1029 30.39 859 25.37 -7.6 18.3 82 -10.2 13.6
19:45 1029 30.39 858 25.34 -7.6 18.3 81 -10.3 13.5
19:50 1029 30.39 858 25.34 -7.7 18.2 82 -10.3 13.5
19:55 1029 30.39 858 25.34 -7.7 18.1 82 -10.3 13.4
20:00 1029 30.39 858 25.34 -7.7 18.1 82 -10.3 13.5
20:05 1029 30.39 858 25.34 -7.8 18.1 82 -10.3 13.5
20:10 1029 30.39 858 25.34 -7.8 18.1 83 -10.2 13.6
20:15 1029 30.39 858 25.34 -7.8 18.1 83 -10.2 13.7
20:20 1029 30.39 858 25.34 -7.8 18 83 -10.2 13.7
20:25 1029 30.39 858 25.34 -7.8 17.9 83 -10.2 13.6
20:30 1029 30.39 858 25.34 -7.8 17.9 83 -10.2 13.7
20:35 1029 30.39 858 25.34 -7.9 17.9 84 -10.2 13.7
20:40 1029 30.39 858 25.34 -7.8 18 83 -10.2 13.7
20:45 1029 30.39 858 25.34 -7.8 17.9 83 -10.3 13.5
20:50 1029 30.39 858 25.34 -7.9 17.8 83 -10.3 13.5
20:55 1029 30.39 858 25.34 -7.9 17.8 83 -10.3 13.5
21:00 1029 30.39 858 25.34 -7.9 17.8 83 -10.2 13.6
21:05 1029 30.39 858 25.34 -7.9 17.8 83 -10.3 13.4
21:10 1029 30.39 858 25.34 -8 17.7 83 -10.4 13.2
21:15 1029 30.39 858 25.34 -8.1 17.4 83 -10.5 13.2
21:20 1029 30.39 858 25.34 -8 17.6 83 -10.4 13.3
21:25 1029 30.39 858 25.34 -8.1 17.5 83 -10.4 13.2
21:30 1029 30.39 858 25.34 -8.1 17.4 83 -10.5 13.2
21:35 1029 30.39 858 25.34 -8 17.6 84 -10.3 13.4
21:40 1029 30.39 858 25.34 -8 17.6 84 -10.3 13.5
21:45 1029 30.39 858 25.34 -7.9 17.8 83 -10.3 13.5
21:50 1029 30.39 858 25.34 -7.7 18.1 82 -10.3 13.5
21:55 1029 30.39 858 25.34 -7.7 18.2 82 -10.2 13.6
22:00 1029 30.39 858 25.34 -7.6 18.3 82 -10.1 13.8
22:05 1029 30.39 858 25.34 -7.6 18.4 82 -10.1 13.8
22:10 1029 30.39 858 25.34 -7.6 18.3 82 -10.2 13.6
22:15 1028 30.36 858 25.34 -7.8 18 82 -10.4 13.3
22:20 1028 30.36 858 25.34 -8 17.7 82 -10.5 13.1
22:25 1029 30.39 858 25.34 -8 17.7 82 -10.5 13.1
22:30 1029 30.39 858 25.34 -8 17.7 82 -10.5 13.1
22:35 1029 30.39 858 25.34 -8.1 17.5 82 -10.5 13
22:40 1029 30.39 858 25.34 -8.1 17.5 82 -10.6 12.9
22:45 1028 30.36 858 25.34 -8 17.5 82 -10.6 12.9
22:50 1028 30.36 858 25.34 -8.1 17.5 81 -10.7 12.7
22:55 1028 30.36 858 25.34 -8.2 17.3 81 -10.8 12.5
23:00 1028 30.36 858 25.34 -8.3 17.1 83 -10.7 12.7
23:05 1028 30.36 858 25.34 -8.2 17.3 82 -10.7 12.8
23:10 1028 30.36 858 25.34 -8.2 17.3 82 -10.7 12.7
23:15 1028 30.36 858 25.34 -8.1 17.4 82 -10.7 12.7
23:20 1028 30.36 858 25.34 -8.2 17.3 82 -10.7 12.7
23:25 1028 30.36 857 25.31 -8.2 17.2 82 -10.8 12.5
23:30 1028 30.36 857 25.31 -8.3 17.1 82 -10.9 12.4
23:35 1028 30.36 857 25.31 -8.4 16.9 82 -11 12.3
23:40 1028 30.36 857 25.31 -8.6 16.6 82 -11 12.1
23:45 1028 30.36 857 25.31 -8.5 16.7 82 -11 12.2
23:50 1028 30.36 857 25.31 -8.4 16.8 81 -11.1 12
23:55 1028 30.36 857 25.31 -8.6 16.6 82 -11.1 12
24:00 1028 30.36 857 25.31 -8.5 16.7 82 -11.1 12